Flight Track Log - Related Links

Times and Time Zones

All times are in EDT time to prevent confusion due to time zone crossing. See the EGF3650 flight status page for this flight to view local times or setup timezone preferences in your user account.

Time Position Orientation Groundspeed Altitude Reporting Facility
EDT Latitude Longitude Course Direction KTS MPH feet Rate Location/Type
Sat 23:28:46 33.9333 -118.4500 90° East 177 204 1,900  Level Southern California TRACON
Sat 23:29:19 33.9117 -118.4811 230° Southwest 195 224 2,800 2,021 Climbing Los Angeles Center
Sat 23:30:00 33.7354 -118.5818 134° Southeast  Level FlightAware Approximate
Sat 23:30:21 33.8481 -118.5247 210° Southwest 263 303 5,100  Level Los Angeles Center
Sat 23:31:00 33.6708 -118.4416 101° East  Level FlightAware Approximate
Sat 23:31:22 33.7758 -118.5228 179° South 278 320 7,300  Level Los Angeles Center
Sat 23:32:00 33.6334 -118.2845 90° East  Level FlightAware Approximate
Sat 23:32:23 33.7128 -118.5156 175° South 289 333 9,300  Level Los Angeles Center
Sat 23:33:00 33.6333 -118.1177 90° East  Level FlightAware Approximate
Sat 23:33:24 33.6636 -118.4103 119° Southeast 314 361 11,000  Level Los Angeles Center
Sat 23:34:26 33.6450 -118.2733 99° East 357 411 13,200 1,951 Climbing Los Angeles Center
Sat 23:35:27 33.6447 -118.1508 90° East 371 427 15,000 1,770 Climbing Los Angeles Center
Sat 23:36:28 33.6447 -118.0239 90° East 382 440 16,800 1,707 Climbing Los Angeles Center
Sat 23:37:30 33.6453 -117.8922 90° East 395 455 18,500 1,610 Climbing Los Angeles Center
Sat 23:38:31 33.6444 -117.7575 90° East 404 465 20,100 1,623 Climbing Los Angeles Center
Sat 23:39:32 33.6439 -117.6189 90° East 415 478 21,800 1,512 Climbing Los Angeles Center
Sat 23:40:34 33.6431 -117.4758 90° East 428 493 23,200 1,366 Climbing Los Angeles Center
Sat 23:41:35 33.6419 -117.3017 90° East 437 503 24,600 1,328 Climbing Los Angeles Center
Sat 23:42:36 33.6414 -117.1511 90° East 450 518 25,900 1,122 Climbing Los Angeles Center
Sat 23:43:38 33.6394 -116.9978 91° East 460 529 26,900 976 Climbing Los Angeles Center
Sat 23:44:39 33.6386 -116.8453 90° East 468 539 27,900 934 Climbing Los Angeles Center
Sat 23:45:40 33.6361 -116.6869 91° East 471 542 28,800 878 Climbing Los Angeles Center
Sat 23:46:42 33.6197 -116.5267 97° East 479 551 29,700 927 Climbing Los Angeles Center
Sat 23:47:43 33.5994 -116.3650 99° East 484 557 30,700 885 Climbing Los Angeles Center
Sat 23:48:44 33.5783 -116.2064 99° East 484 557 31,500 780 Climbing Los Angeles Center
Sat 23:49:46 33.5558 -116.0450 99° East 485 558 32,300 732 Climbing Los Angeles Center
Sat 23:50:47 33.5297 -115.8511 99° East 491 565 33,000 344 Climbing Los Angeles Center
Sat 23:51:48 33.5056 -115.6850 100° East 503 579 33,000  Level Los Angeles Center
Sat 23:52:50 33.4806 -115.5144 100° East 516 594 33,000  Level Los Angeles Center
Sat 23:53:51 33.4578 -115.3433 99° East 520 598 33,000  Level Los Angeles Center
Sat 23:54:52 33.4317 -115.1717 100° East 521 600 33,000  Level Los Angeles Center
Sat 23:55:53 33.4081 -115.0014 99° East 519 597 33,000  Level Los Angeles Center
Sat 23:56:55 33.3819 -114.8306 100° East 522 601 33,000  Level Los Angeles Center
Sat 23:57:56 33.3589 -114.6619 99° East 515 593 33,000  Level Los Angeles Center
Sat 23:58:44 33.3383 -114.5067 99° East 523 602 33,000  Level Albuquerque Center
Sat 23:59:45 33.3128 -114.3361 100° East 524 603 33,000  Level Albuquerque Center
Sun 00:00:45 33.2869 -114.1639 100° East 527 606 33,000  Level Albuquerque Center
Sun 00:01:46 33.2589 -113.9917 101° East 528 608 33,000  Level Albuquerque Center
Sun 00:02:46 33.2331 -113.8183 100° East 530 610 33,000  Level Albuquerque Center
Sun 00:03:46 33.2061 -113.6447 100° East 531 611 33,000  Level Albuquerque Center
Sun 00:04:47 33.1786 -113.4703 101° East 533 613 33,000  Level Albuquerque Center
Sun 00:05:47 33.1506 -113.2950 101° East 535 616 33,000  Level Albuquerque Center
Sun 00:06:48 33.1222 -113.1203 101° East 534 615 33,000  Level Albuquerque Center
Sun 00:07:48 33.0933 -112.9464 101° East 534 615 33,000  Level Albuquerque Center
Sun 00:08:48 33.0656 -112.7706 101° East 536 617 33,000  Level Albuquerque Center
Sun 00:09:49 33.0361 -112.5964 101° East 535 616 33,000  Level Albuquerque Center
Sun 00:10:49 33.0067 -112.4211 101° East 536 617 33,000  Level Albuquerque Center
Sun 00:11:49 32.9756 -112.2353 101° East 540 621 33,000  Level Albuquerque Center
Sun 00:12:50 32.9464 -112.0603 101° East 541 623 33,000  Level Albuquerque Center
Sun 00:13:50 32.9167 -111.8867 101° East 540 621 33,000  Level Albuquerque Center
Sun 00:14:50 32.8867 -111.7119 102° East 541 623 33,000  Level Albuquerque Center
Sun 00:15:51 32.8564 -111.5361 102° East 546 628 33,000  Level Albuquerque Center
Sun 00:16:51 32.8250 -111.3614 102° East 544 626 33,000  Level Albuquerque Center
Sun 00:17:51 32.7950 -111.1850 101° East 547 629 33,000  Level Albuquerque Center
Sun 00:18:52 32.7625 -111.0081 102° East 549 632 33,000  Level Albuquerque Center
Sun 00:19:52 32.7306 -110.8294 102° East 553 636 33,000  Level Albuquerque Center
Sun 00:20:52 32.6981 -110.6514 102° East 554 638 33,000  Level Albuquerque Center
Sun 00:21:53 32.6661 -110.4728 102° East 556 640 33,000  Level Albuquerque Center
Sun 00:22:53 32.6289 -110.2803 103° East 558 642 33,000  Level Albuquerque Center
Sun 00:23:53 32.5967 -110.1022 102° East 558 642 33,000  Level Albuquerque Center
Sun 00:24:54 32.5625 -109.9239 103° East 561 646 33,000  Level Albuquerque Center
Sun 00:25:54 32.5289 -109.7464 103° East 561 646 33,000  Level Albuquerque Center
Sun 00:26:54 32.4919 -109.5669 104° East 568 654 33,000  Level Albuquerque Center
Sun 00:27:55 32.4586 -109.3892 102° East 566 651 33,000  Level Albuquerque Center
Sun 00:28:55 32.4244 -109.2094 103° East 567 652 33,000  Level Albuquerque Center
Sun 00:29:55 32.3883 -109.0292 103° East 570 656 33,000  Level Albuquerque Center
Sun 00:30:56 32.3533 -108.8494 103° East 571 657 33,000  Level Albuquerque Center
Sun 00:31:56 32.3167 -108.6694 104° East 572 658 33,000  Level Albuquerque Center
Sun 00:32:56 32.2739 -108.4517 103° East 573 659 33,000 -50 Level Albuquerque Center
Sun 00:33:56 32.2425 -108.2931 103° East 572 658 32,900  Descending Albuquerque Center
Sun 00:34:57 32.2047 -108.1125 104° East 570 656 33,000 50 Climbing Albuquerque Center
Sun 00:35:57 32.1675 -107.9314 104° East 572 658 33,000  Level Albuquerque Center
Sun 00:36:57 32.1314 -107.7508 103° East 570 656 33,000  Level Albuquerque Center
Sun 00:37:58 32.0950 -107.5689 103° East 574 661 33,000  Level Albuquerque Center
Sun 00:38:58 32.0703 -107.3461 97° East 578 665 33,000  Level Albuquerque Center
Sun 00:39:58 32.0475 -107.1622 98° East 576 663 33,000  Level Albuquerque Center
Sun 00:40:59 32.0244 -106.9758 98° East 579 666 33,000  Level Albuquerque Center
Sun 00:41:59 32.0008 -106.7900 98° East 580 667 33,000  Level Albuquerque Center
Sun 00:42:59 31.9761 -106.6042 99° East 580 667 33,000  Level Albuquerque Center
Sun 00:44:00 31.9508 -106.4194 99° East 575 662 33,000  Level Albuquerque Center
Sun 00:45:00 31.9269 -106.2314 98° East 584 672 33,000  Level Albuquerque Center
Sun 00:46:00 31.9008 -106.0444 99° East 579 666 33,000  Level Albuquerque Center
Sun 00:47:01 31.8739 -105.8558 100° East 583 671 33,000  Level Albuquerque Center
Sun 00:48:01 31.8486 -105.6661 99° East 587 676 33,000  Level Albuquerque Center
Sun 00:49:01 31.8219 -105.4742 99° East 594 684 33,000  Level Albuquerque Center
Sun 00:50:02 31.7961 -105.2853 99° East 587 676 33,000  Level Albuquerque Center
Sun 00:51:02 31.7683 -105.0958 100° East 586 674 33,000 -50 Level Albuquerque Center
Sun 00:52:02 31.7433 -104.9058 99° East 587 676 32,900 -595 Descending Albuquerque Center
Sun 00:53:03 31.7161 -104.7169 100° East 585 673 31,800 -942 Descending Albuquerque Center
Sun 00:54:03 31.6889 -104.5333 100° East 575 662 31,000 -400 Descending Albuquerque Center
Sun 00:55:03 31.6619 -104.3503 100° East 569 655 31,000  Level Albuquerque Center
Sun 00:56:04 31.6358 -104.1656 99° East 572 658 31,000  Level Albuquerque Center
Sun 00:57:04 31.6075 -103.9794 100° East 577 664 31,000  Level Albuquerque Center
Sun 00:58:04 31.5803 -103.7914 100° East 582 670 31,000  Level Albuquerque Center
Sun 00:59:05 31.5478 -103.5864 100° East 585 673 31,000  Level Albuquerque Center
Sun 01:00:06 31.5161 -103.3978 101° East 588 677 31,000  Level Albuquerque Center
Sun 01:01:06 31.4869 -103.2119 100° East 586 674 31,000  Level Albuquerque Center
Sun 01:02:07 31.4567 -103.0236 101° East 587 676 31,000  Level Albuquerque Center
Sun 01:03:07 31.4275 -102.8372 100° East 584 672 31,000  Level Albuquerque Center
Sun 01:04:07 31.3961 -102.6517 101° East 583 671 31,000  Level Albuquerque Center
Sun 01:05:08 31.3683 -102.4769 101° East 591 680 31,000  Level Albuquerque Center
Sun 01:06:08 31.3369 -102.2917 101° East 591 680 31,000  Level Albuquerque Center
Sun 01:07:08 31.3069 -102.1067 101° East 586 674 31,000  Level Albuquerque Center
Sun 01:08:09 31.2761 -101.9208 101° East 584 672 31,000  Level Albuquerque Center
Sun 01:09:09 31.2456 -101.7425 101° East 579 666 31,000  Level Albuquerque Center
Sun 01:09:46 31.2206 -101.5942 101° East 581 669 31,000  Level Houston Center
Sun 01:10:46 31.1886 -101.4086 101° East 583 671 31,000  Level Houston Center
Sun 01:11:46 31.1597 -101.2464 102° East 585 673 31,000  Level Houston Center
Sun 01:12:46 31.1292 -101.0589 101° East 588 677 31,000  Level Houston Center
Sun 01:13:46 31.0958 -100.8719 102° East 588 677 31,000  Level Houston Center
Sun 01:14:46 31.0628 -100.6828 101° East 595 685 31,000  Level Houston Center
Sun 01:15:47 31.0283 -100.4958 102° East 591 680 31,000  Level Houston Center
Sun 01:16:47 30.9944 -100.3089 102° East 589 678 31,000  Level Houston Center
Sun 01:17:47 30.9608 -100.1214 102° East 589 678 31,000  Level Houston Center
Sun 01:18:47 30.9253 -99.9342 102° East 590 679 31,000  Level Houston Center
Sun 01:19:47 30.8908 -99.7483 102° East 587 676 31,000  Level Houston Center
Sun 01:20:47 30.8569 -99.5628 102° East 585 673 31,000  Level Houston Center
Sun 01:21:47 30.8211 -99.3756 103° East 589 678 31,000  Level Houston Center
Sun 01:22:48 30.7847 -99.1914 103° East 585 673 31,000  Level Houston Center
Sun 01:23:48 30.7492 -99.0017 102° East 582 670 31,000  Level Houston Center
Sun 01:24:48 30.7125 -98.8164 103° East 583 671 31,000  Level Houston Center
Sun 01:25:48 30.6772 -98.6328 103° East 579 666 31,000  Level Houston Center
Sun 01:26:48 30.6406 -98.4492 103° East 579 666 31,000  Level Houston Center
Sun 01:27:48 30.6056 -98.2658 102° East 576 663 31,000  Level Houston Center
Sun 01:28:48 30.5678 -98.0839 104° East 578 665 31,000  Level Houston Center
Sun 01:29:48 30.5314 -97.9031 103° East 575 662 31,000  Level Houston Center
Sun 01:30:49 30.4950 -97.7208 103° East 576 663 31,000 -248 Level Houston Center
Sun 01:31:49 30.4556 -97.5419 104° East 574 661 30,500 -750 Descending Houston Center
Sun 01:32:49 30.4122 -97.3636 106° East 573 659 29,500 -1,000 Descending Houston Center
Sun 01:33:49 30.3694 -97.1869 106° East 570 656 28,500 -1,012 Descending Houston Center
Sun 01:34:12 30.3531 -97.1178 105° East 567 652 28,100 -1,200 Descending Houston Center
Sun 01:34:49 30.3275 -97.0178 106° East 551 634 27,300 -1,315 Descending Houston Center
Sun 01:35:25 30.3039 -96.9175 105° East 542 624 26,500 -1,400 Descending Houston Center
Sun 01:35:49 30.2864 -96.8475 106° East 547 629 25,900 -1,636 Descending Houston Center
Sun 01:36:20 30.2647 -96.7694 108° East 540 621 25,000 -1,900 Descending Houston Center
Sun 01:36:49 30.2425 -96.6786 106° East 547 629 24,000 -2,066 Descending Houston Center
Sun 01:37:21 30.2211 -96.5928 106° East 546 628 22,900 -2,066 Descending Houston Center
Sun 01:37:50 30.2031 -96.5131 105° East 535 616 21,900 -2,000 Descending Houston Center
Sun 01:38:21 30.1861 -96.4469 107° East 488 562 20,900 -1,700 Descending Houston Center
Sun 01:38:50 30.1731 -96.3908 105° East 485 558 20,200 -2,200 Descending Houston Center
Sun 01:39:21 30.1508 -96.3011 106° East 440 506 18,700 -2,300 Descending Houston Center
Sun 01:39:50 30.1403 -96.2564 105° East 434 499 17,900 -2,164 Descending Houston Center
Sun 01:40:22 30.1169 -96.1747 108° East 376 433 16,500 -2,400 Descending Houston Center
Sun 01:40:50 30.1064 -96.1283 105° East 377 434 15,500 -2,262 Descending Houston Center
Sun 01:41:23 30.0911 -96.0689 107° East 342 394 14,200 -2,400 Descending Houston Center
Sun 01:41:50 30.0797 -96.0250 107° East 342 394 13,100 -2,600 Descending Houston Center
Sun 01:42:23 30.0656 -95.9681 106° East 324 373 11,600 -2,200 Descending Houston Center
Sun 01:42:50 30.0581 -95.9392 107° East 324 373 10,900 -2,459 Descending Houston Center
Sun 01:43:24 30.0408 -95.8744 107° East 307 353 9,100 -2,400 Descending Houston Center
Sun 01:43:50 30.0350 -95.8458 103° East 305 351 8,500 -2,361 Descending Houston Center
Sun 01:44:25 30.0158 -95.7808 109° East 285 328 6,700 -2,400 Descending Houston Center
Sun 01:44:50 30.0119 -95.7581 101° East 288 331 6,100 -1,900 Descending Houston Center
Sun 01:45:25 29.9956 -95.6964 107° East 266 306 4,800 -1,574 Descending Houston Center
Sun 01:45:51 29.9917 -95.6789 104° East 262 302 4,500 -787 Descending Houston Center
Sun 01:46:26 29.9911 -95.6222 91° East 226 260 4,000 -500 Descending Houston Center
Sun 01:46:51 29.9933 -95.6050 82° East 232 267 4,000 -300 Level Houston Center
Sun 01:47:26 29.9917 -95.5594 92° East 176 203 3,700 -500 Descending Houston Center
Sun 01:47:51 29.9931 -95.5469 83° East 191 220 3,500 -1,075 Descending Houston Center
Sun 01:48:33 29.9928 -95.4989 90° East 176 203 2,500 -1,100 Descending Houston Center
Sun 01:48:51 29.9942 -95.4911 78° East 178 205 2,400 -689 Descending Houston Center
Sun 01:49:34 29.9931 -95.4556 92° East 126 145 1,800 -700 Descending Houston Center
Sun 01:49:51 29.9944 -95.4503 73° East 147 169 1,700 -353 Descending Houston Center

Login

Don't have an account? Register now (free) for customized features, flight alerts, and more!